Time;durP1;ratioP1;P1;durP2;ratioP2;P2;SDS_P1;SDS_P2;PMS_P1;PMS_P2;Temp;Humidity;BMP_temperature;BMP_pressure;BME280_temperature;BME280_humidity;BME280_pressure;Samples;Min_cycle;Max_cycle;Signal;HPM_P1;HPM_P2
2021/06/07 00:01:09;;;;;;;3.28;2.70;;;;;;;;;;4953969;28;20034;-72
2021/06/07 00:03:36;;;;;;;4.63;2.67;;;;;;;;;;4954002;28;20023;-72
2021/06/07 00:06:02;;;;;;;4.43;2.33;;;;;;;;;;4953755;28;20035;-72
2021/06/07 00:08:28;;;;;;;7.30;2.40;;;;;;;;;;4953863;28;20024;-72
2021/06/07 00:10:55;;;;;;;7.97;2.35;;;;;;;;;;4953051;28;20581;-72
2021/06/07 00:13:21;;;;;;;10.90;2.60;;;;;;;;;;4953425;28;20031;-72
2021/06/07 00:15:48;;;;;;;3.42;2.42;;;;;;;;;;4953003;28;20088;-76
2021/06/07 00:18:14;;;;;;;8.25;2.53;;;;;;;;;;4953394;28;20141;-76
2021/06/07 00:20:43;;;;;;;8.25;2.75;;;;;;;;;;4953629;28;20034;-71
2021/06/07 00:23:10;;;;;;;6.90;2.20;;;;;;;;;;4953596;28;20066;-72
2021/06/07 00:25:37;;;;;;;5.72;2.50;;;;;;;;;;4953308;28;20031;-72
2021/06/07 00:28:03;;;;;;;3.45;2.30;;;;;;;;;;4953282;28;20483;-76
2021/06/07 00:30:29;;;;;;;6.60;2.40;;;;;;;;;;4953461;28;20055;-72
2021/06/07 00:32:55;;;;;;;5.00;2.45;;;;;;;;;;4953452;28;20051;-76
2021/06/07 00:35:22;;;;;;;5.63;2.35;;;;;;;;;;4953424;28;20071;-71
2021/06/07 00:37:48;;;;;;;5.82;2.45;;;;;;;;;;4953601;28;20020;-72
2021/06/07 00:40:15;;;;;;;4.80;2.30;;;;;;;;;;4953339;28;20031;-72
2021/06/07 00:42:41;;;;;;;6.38;2.60;;;;;;;;;;4953265;28;20023;-72
2021/06/07 00:45:12;;;;;;;4.43;2.70;;;;;;;;;;4953481;28;20031;-75
2021/06/07 00:47:39;;;;;;;3.00;2.10;;;;;;;;;;4953104;28;20467;-72
2021/06/07 00:50:11;;;;;;;5.68;2.50;;;;;;;;;;4952932;28;20537;-71
2021/06/07 00:52:37;;;;;;;2.60;2.40;;;;;;;;;;4953283;28;20035;-76
2021/06/07 00:55:05;;;;;;;7.80;2.70;;;;;;;;;;4953038;28;20039;-72
2021/06/07 00:57:31;;;;;;;6.47;2.60;;;;;;;;;;4952498;28;20046;-72
2021/06/07 00:59:57;;;;;;;5.82;2.63;;;;;;;;;;4950407;28;20031;-72
2021/06/07 01:02:23;;;;;;;7.57;2.92;;;;;;;;;;4950375;28;20399;-72
2021/06/07 01:04:49;;;;;;;2.63;2.35;;;;;;;;;;4951665;28;20371;-71
2021/06/07 01:07:15;;;;;;;3.97;2.28;;;;;;;;;;4952781;28;20038;-72
2021/06/07 01:09:41;;;;;;;9.25;2.60;;;;;;;;;;4953064;28;20030;-71
2021/06/07 01:12:07;;;;;;;5.55;2.50;;;;;;;;;;4952740;28;20031;-71
2021/06/07 01:14:33;;;;;;;5.28;2.58;;;;;;;;;;4952363;28;20039;-71
2021/06/07 01:16:59;;;;;;;5.82;2.70;;;;;;;;;;4952732;28;20034;-72
2021/06/07 01:19:26;;;;;;;9.80;2.58;;;;;;;;;;4952609;28;20050;-71
2021/06/07 01:22:01;;;;;;;4.97;2.60;;;;;;;;;;4951716;28;20027;-71
2021/06/07 01:24:27;;;;;;;6.28;2.83;;;;;;;;;;4953010;28;20031;-71
2021/06/07 01:26:53;;;;;;;6.72;2.63;;;;;;;;;;4952628;28;20482;-71
2021/06/07 01:29:19;;;;;;;3.20;2.53;;;;;;;;;;4952063;28;20023;-74
2021/06/07 01:31:45;;;;;;;4.22;2.83;;;;;;;;;;4952102;28;20391;-72
2021/06/07 01:34:12;;;;;;;3.85;2.70;;;;;;;;;;4952425;28;20040;-73
2021/06/07 01:36:38;;;;;;;4.50;2.53;;;;;;;;;;4949984;28;20027;-72
2021/06/07 01:39:04;;;;;;;3.17;2.47;;;;;;;;;;4951971;28;20028;-71
2021/06/07 01:41:30;;;;;;;3.53;2.70;;;;;;;;;;4952557;28;20023;-71
2021/06/07 01:43:56;;;;;;;7.70;2.60;;;;;;;;;;4952275;28;20062;-71
2021/06/07 01:46:22;;;;;;;6.15;2.75;;;;;;;;;;4952636;28;20027;-72
2021/06/07 01:48:48;;;;;;;10.50;2.90;;;;;;;;;;4952324;28;20432;-72
2021/06/07 01:51:14;;;;;;;7.57;2.72;;;;;;;;;;4952148;28;20063;-71
2021/06/07 01:53:41;;;;;;;3.60;2.88;;;;;;;;;;4952160;28;20027;-72
2021/06/07 01:56:08;;;;;;;5.35;2.58;;;;;;;;;;4952173;28;20106;-71
2021/06/07 01:58:34;;;;;;;6.82;2.90;;;;;;;;;;4951966;28;20023;-71
2021/06/07 02:01:08;;;;;;;3.60;2.50;;;;;;;;;;4952393;28;20031;-71
2021/06/07 02:03:35;;;;;;;5.38;2.47;;;;;;;;;;4952137;28;20053;-71
2021/06/07 02:06:04;;;;;;;6.78;2.80;;;;;;;;;;4952386;28;20092;-72
2021/06/07 02:08:31;;;;;;;4.32;2.50;;;;;;;;;;4952175;28;20027;-76
2021/06/07 02:11:14;;;;;;;4.40;2.67;;;;;;;;;;4952258;28;20023;-72
2021/06/07 02:13:41;;;;;;;5.50;2.80;;;;;;;;;;4952269;28;20065;-71
2021/06/07 02:16:14;;;;;;;7.55;2.60;;;;;;;;;;4952276;28;20027;-71
2021/06/07 02:18:40;;;;;;;7.15;2.80;;;;;;;;;;4952437;28;20034;-71
2021/06/07 02:21:07;;;;;;;7.85;2.60;;;;;;;;;;4952359;28;20038;-70
2021/06/07 02:23:34;;;;;;;9.35;2.55;;;;;;;;;;4952127;28;20035;-76
2021/06/07 02:26:00;;;;;;;6.28;2.80;;;;;;;;;;4952113;28;20033;-72
2021/06/07 02:28:26;;;;;;;5.90;2.88;;;;;;;;;;4951948;28;20028;-71
2021/06/07 02:30:52;;;;;;;5.13;2.53;;;;;;;;;;4952069;28;20402;-71
2021/06/07 02:33:18;;;;;;;3.40;2.55;;;;;;;;;;4953006;28;20047;-72
2021/06/07 02:35:45;;;;;;;5.40;2.60;;;;;;;;;;4955302;28;20035;-72
2021/06/07 02:38:12;;;;;;;4.57;2.90;;;;;;;;;;4955359;28;20081;-76
2021/06/07 02:40:39;;;;;;;7.57;2.88;;;;;;;;;;4955426;28;20100;-72
2021/06/07 02:43:05;;;;;;;8.57;3.05;;;;;;;;;;4955180;28;20464;-72
2021/06/07 02:45:32;;;;;;;7.97;2.65;;;;;;;;;;4954951;28;20063;-71
2021/06/07 02:47:59;;;;;;;6.97;2.90;;;;;;;;;;4954944;28;20034;-71
2021/06/07 02:50:27;;;;;;;7.57;2.75;;;;;;;;;;4955024;28;20031;-72
2021/06/07 02:52:54;;;;;;;3.85;2.92;;;;;;;;;;4954907;28;20050;-71
2021/06/07 02:55:22;;;;;;;4.63;2.92;;;;;;;;;;4954816;28;20035;-71
2021/06/07 02:57:49;;;;;;;8.25;2.75;;;;;;;;;;4955112;28;20024;-71
2021/06/07 03:00:17;;;;;;;3.60;2.83;;;;;;;;;;4954915;28;20034;-71
2021/06/07 03:02:43;;;;;;;3.40;2.63;;;;;;;;;;4954680;28;20035;-72
2021/06/07 03:05:09;;;;;;;2.83;2.22;;;;;;;;;;4954864;28;20019;-72
2021/06/07 03:07:35;;;;;;;4.25;2.33;;;;;;;;;;4954913;28;20499;-71
2021/06/07 03:10:01;;;;;;;3.33;2.60;;;;;;;;;;4954458;28;20028;-71
2021/06/07 03:12:27;;;;;;;10.23;2.60;;;;;;;;;;4954951;28;20027;-71
2021/06/07 03:14:53;;;;;;;6.00;2.60;;;;;;;;;;4954827;28;20065;-71
2021/06/07 03:17:20;;;;;;;5.75;2.17;;;;;;;;;;4954752;28;20109;-71
2021/06/07 03:19:46;;;;;;;4.45;2.30;;;;;;;;;;4954621;28;20073;-76
2021/06/07 03:22:12;;;;;;;5.25;2.33;;;;;;;;;;4954723;28;20023;-73
2021/06/07 03:24:38;;;;;;;5.32;2.47;;;;;;;;;;4954643;28;20028;-73
2021/06/07 03:27:04;;;;;;;3.03;2.30;;;;;;;;;;4954745;28;20088;-71
2021/06/07 03:29:30;;;;;;;2.90;2.38;;;;;;;;;;4954624;28;20020;-71
2021/06/07 03:31:56;;;;;;;4.60;2.35;;;;;;;;;;4953189;28;20059;-72
2021/06/07 03:34:22;;;;;;;7.05;2.40;;;;;;;;;;4954328;28;20077;-71
2021/06/07 03:36:48;;;;;;;3.20;2.15;;;;;;;;;;4954440;28;20050;-72
2021/06/07 03:39:14;;;;;;;2.35;2.05;;;;;;;;;;4954519;28;20023;-76
2021/06/07 03:41:40;;;;;;;3.95;2.35;;;;;;;;;;4954391;28;20130;-75
2021/06/07 03:44:06;;;;;;;4.60;2.00;;;;;;;;;;4953556;28;20027;-71
2021/06/07 03:46:32;;;;;;;7.60;2.33;;;;;;;;;;4953954;28;20076;-71
2021/06/07 03:48:58;;;;;;;3.00;2.25;;;;;;;;;;4954091;28;20061;-71
2021/06/07 03:51:25;;;;;;;4.22;2.30;;;;;;;;;;4954016;28;20433;-72
2021/06/07 03:53:51;;;;;;;3.83;2.20;;;;;;;;;;4954049;28;20027;-73
2021/06/07 03:56:17;;;;;;;4.93;2.13;;;;;;;;;;4953804;28;20114;-71
2021/06/07 03:58:43;;;;;;;5.50;2.10;;;;;;;;;;4953898;28;20514;-71
2021/06/07 04:01:09;;;;;;;4.65;2.03;;;;;;;;;;4954034;28;20093;-72
2021/06/07 04:03:36;;;;;;;3.63;2.00;;;;;;;;;;4954092;28;20036;-71
2021/06/07 04:06:02;;;;;;;3.20;1.92;;;;;;;;;;4953110;28;20026;-71
2021/06/07 04:08:29;;;;;;;5.68;2.25;;;;;;;;;;4952777;28;20042;-69
2021/06/07 04:10:55;;;;;;;7.03;2.10;;;;;;;;;;4953801;28;20023;-74
2021/06/07 04:13:21;;;;;;;3.65;2.30;;;;;;;;;;4953736;28;20565;-73
2021/06/07 04:15:47;;;;;;;4.47;2.17;;;;;;;;;;4953647;28;20046;-74
2021/06/07 04:18:13;;;;;;;3.88;2.08;;;;;;;;;;4953401;28;20471;-75
2021/06/07 04:20:39;;;;;;;7.68;1.98;;;;;;;;;;4953944;28;20102;-71
2021/06/07 04:23:07;;;;;;;3.53;2.30;;;;;;;;;;4953530;28;20062;-74
2021/06/07 04:25:34;;;;;;;5.15;2.05;;;;;;;;;;4952551;28;20039;-71
2021/06/07 04:28:00;;;;;;;5.72;2.22;;;;;;;;;;4952353;28;20027;-71
2021/06/07 04:30:27;;;;;;;4.35;2.20;;;;;;;;;;4951397;28;20027;-74
2021/06/07 04:32:54;;;;;;;7.47;2.42;;;;;;;;;;4953282;28;20075;-71
2021/06/07 04:35:20;;;;;;;3.72;2.35;;;;;;;;;;4953136;28;20081;-75
2021/06/07 04:37:51;;;;;;;3.70;2.25;;;;;;;;;;4953629;28;20027;-74
2021/06/07 04:40:24;;;;;;;7.43;2.58;;;;;;;;;;4952592;28;20097;-70
2021/06/07 04:42:51;;;;;;;4.05;2.42;;;;;;;;;;4952195;28;20031;-75
2021/06/07 04:45:18;;;;;;;6.80;2.60;;;;;;;;;;4953385;28;20065;-70
2021/06/07 04:47:44;;;;;;;4.07;2.60;;;;;;;;;;4953460;28;20066;-75
2021/06/07 04:50:11;;;;;;;4.93;2.67;;;;;;;;;;4953308;28;20023;-71
2021/06/07 04:52:56;;;;;;;5.60;2.28;;;;;;;;;;4953492;28;20373;-70
2021/06/07 04:55:23;;;;;;;6.20;2.80;;;;;;;;;;4953234;28;20039;-71
2021/06/07 04:57:49;;;;;;;2.42;2.22;;;;;;;;;;4953096;28;20532;-70
2021/06/07 05:00:16;;;;;;;6.22;2.80;;;;;;;;;;4953060;28;20106;-70
2021/06/07 05:02:42;;;;;;;5.70;2.65;;;;;;;;;;4952986;28;20169;-70
2021/06/07 05:05:08;;;;;;;6.43;2.95;;;;;;;;;;4953044;28;20028;-73
2021/06/07 05:07:34;;;;;;;5.55;2.55;;;;;;;;;;4952846;28;20031;-72
2021/06/07 05:10:01;;;;;;;4.15;2.60;;;;;;;;;;4953066;28;20078;-74
2021/06/07 05:12:27;;;;;;;9.50;2.60;;;;;;;;;;4953051;28;20031;-71
2021/06/07 05:14:54;;;;;;;6.60;3.05;;;;;;;;;;4952948;28;20035;-71
2021/06/07 05:17:22;;;;;;;6.38;2.47;;;;;;;;;;4952942;28;20103;-75
2021/06/07 05:19:50;;;;;;;6.95;3.17;;;;;;;;;;4952848;28;20026;-70
2021/06/07 05:22:16;;;;;;;5.13;2.42;;;;;;;;;;4952910;28;20027;-70
2021/06/07 05:24:43;;;;;;;6.38;2.10;;;;;;;;;;4952742;28;20059;-70
2021/06/07 05:27:09;;;;;;;4.72;2.53;;;;;;;;;;4952760;28;20031;-71
2021/06/07 05:29:35;;;;;;;2.63;2.40;;;;;;;;;;4952707;28;20054;-70
2021/06/07 05:32:01;;;;;;;3.38;2.42;;;;;;;;;;4952503;28;20054;-74
2021/06/07 05:34:28;;;;;;;4.40;2.28;;;;;;;;;;4951181;28;20058;-70
2021/06/07 05:36:54;;;;;;;3.42;1.92;;;;;;;;;;4951602;28;20024;-70
2021/06/07 05:39:20;;;;;;;3.03;2.22;;;;;;;;;;4952919;28;20023;-71
2021/06/07 05:41:47;;;;;;;4.97;2.08;;;;;;;;;;4952342;28;20019;-70
2021/06/07 05:44:13;;;;;;;4.72;2.25;;;;;;;;;;4952278;28;20436;-70
2021/06/07 05:46:40;;;;;;;2.90;2.40;;;;;;;;;;4951746;28;20471;-70
2021/06/07 05:49:06;;;;;;;2.90;2.60;;;;;;;;;;4951375;28;20019;-70
2021/06/07 05:51:33;;;;;;;3.58;2.30;;;;;;;;;;4952380;28;20438;-70
2021/06/07 05:53:59;;;;;;;4.32;2.60;;;;;;;;;;4951857;28;20020;-70
2021/06/07 05:56:25;;;;;;;6.32;2.58;;;;;;;;;;4951284;28;20038;-73
2021/06/07 05:58:57;;;;;;;3.15;2.80;;;;;;;;;;4949929;28;20101;-70
2021/06/07 06:01:23;;;;;;;6.82;2.78;;;;;;;;;;4952360;28;20042;-71
2021/06/07 06:03:50;;;;;;;5.15;2.90;;;;;;;;;;4952208;28;20027;-71
2021/06/07 06:06:16;;;;;;;5.82;2.50;;;;;;;;;;4952297;28;20110;-70
2021/06/07 06:08:42;;;;;;;8.75;2.85;;;;;;;;;;4951602;28;20024;-70
2021/06/07 06:11:10;;;;;;;4.40;2.42;;;;;;;;;;4952233;28;20031;-70
2021/06/07 06:13:38;;;;;;;5.47;2.33;;;;;;;;;;4951363;28;20032;-71
2021/06/07 06:16:04;;;;;;;4.45;2.50;;;;;;;;;;4951454;28;20031;-73
2021/06/07 06:18:31;;;;;;;2.92;2.42;;;;;;;;;;4951258;28;20433;-70
2021/06/07 06:20:57;;;;;;;4.18;2.60;;;;;;;;;;4951500;28;20030;-70
2021/06/07 06:23:23;;;;;;;5.68;2.80;;;;;;;;;;4951871;28;20382;-70
2021/06/07 06:25:49;;;;;;;6.25;2.53;;;;;;;;;;4951518;28;20069;-70
2021/06/07 06:28:15;;;;;;;7.70;2.63;;;;;;;;;;4950526;28;20027;-71
2021/06/07 06:30:42;;;;;;;3.72;2.78;;;;;;;;;;4950865;28;20497;-76
2021/06/07 06:33:08;;;;;;;6.20;2.70;;;;;;;;;;4951254;28;20130;-70
2021/06/07 06:35:34;;;;;;;4.05;3.15;;;;;;;;;;4950542;28;20396;-69
2021/06/07 06:38:00;;;;;;;4.07;2.75;;;;;;;;;;4950292;28;20024;-75
2021/06/07 06:40:29;;;;;;;6.68;3.30;;;;;;;;;;4951415;28;20031;-70
2021/06/07 06:42:56;;;;;;;5.13;3.00;;;;;;;;;;4951105;28;20098;-71
2021/06/07 06:45:23;;;;;;;6.15;2.90;;;;;;;;;;4950786;28;20035;-70
2021/06/07 06:47:56;;;;;;;3.40;3.10;;;;;;;;;;4951132;28;20028;-75
2021/06/07 06:50:23;;;;;;;2.63;2.38;;;;;;;;;;4950146;28;20038;-74
2021/06/07 06:52:50;;;;;;;4.78;2.10;;;;;;;;;;4948642;28;20089;-70
2021/06/07 06:55:16;;;;;;;2.15;1.95;;;;;;;;;;4949673;28;20043;-71
2021/06/07 06:57:43;;;;;;;5.68;2.40;;;;;;;;;;4950968;28;20049;-70
2021/06/07 07:00:10;;;;;;;3.25;2.95;;;;;;;;;;4951166;28;20028;-74
2021/06/07 07:02:36;;;;;;;2.65;2.30;;;;;;;;;;4951359;28;20024;-69
2021/06/07 07:05:03;;;;;;;4.75;2.10;;;;;;;;;;4950559;28;20034;-75
2021/06/07 07:07:29;;;;;;;3.03;2.40;;;;;;;;;;4950849;28;20028;-71
2021/06/07 07:09:56;;;;;;;2.45;2.25;;;;;;;;;;4951173;28;20034;-75
2021/06/07 07:12:24;;;;;;;2.28;1.98;;;;;;;;;;4950946;28;20084;-75
2021/06/07 07:14:51;;;;;;;2.22;1.95;;;;;;;;;;4950684;28;20411;-75
2021/06/07 07:17:17;;;;;;;1.80;1.70;;;;;;;;;;4950433;28;20035;-73
2021/06/07 07:19:45;;;;;;;2.45;2.03;;;;;;;;;;4950992;28;20055;-75
2021/06/07 07:22:12;;;;;;;2.33;1.95;;;;;;;;;;4953889;28;20476;-71
2021/06/07 07:24:43;;;;;;;2.13;1.70;;;;;;;;;;4952089;28;20073;-75
2021/06/07 07:27:11;;;;;;;2.42;1.90;;;;;;;;;;4953144;28;20038;-70
2021/06/07 07:29:37;;;;;;;2.22;2.03;;;;;;;;;;4952419;28;20023;-71
2021/06/07 07:32:06;;;;;;;3.22;2.10;;;;;;;;;;4951946;28;20044;-74
2021/06/07 07:34:33;;;;;;;2.10;1.83;;;;;;;;;;4952449;28;20040;-70
2021/06/07 07:37:00;;;;;;;3.60;2.10;;;;;;;;;;4953762;28;20030;-70
2021/06/07 07:39:27;;;;;;;5.32;2.03;;;;;;;;;;4953511;28;20027;-72
2021/06/07 07:41:53;;;;;;;2.15;1.80;;;;;;;;;;4953611;28;20027;-72
2021/06/07 07:44:20;;;;;;;3.10;2.10;;;;;;;;;;4953442;28;20107;-71
2021/06/07 07:46:46;;;;;;;4.03;2.22;;;;;;;;;;4965599;28;20019;-75
2021/06/07 07:49:13;;;;;;;2.47;2.20;;;;;;;;;;4972953;28;20058;-71
2021/06/07 07:51:40;;;;;;;2.78;1.92;;;;;;;;;;4972996;28;20023;-70
2021/06/07 07:54:10;;;;;;;2.42;2.08;;;;;;;;;;4972814;28;20034;-71
2021/06/07 07:56:37;;;;;;;2.88;2.00;;;;;;;;;;4971972;28;20035;-70
2021/06/07 07:59:04;;;;;;;4.20;2.20;;;;;;;;;;4972930;28;20097;-74
2021/06/07 08:01:31;;;;;;;3.38;2.05;;;;;;;;;;4973447;28;20051;-72
2021/06/07 08:03:57;;;;;;;3.20;1.83;;;;;;;;;;4971980;28;20030;-71
2021/06/07 08:06:23;;;;;;;3.50;2.15;;;;;;;;;;4971422;28;20030;-71
2021/06/07 08:08:49;;;;;;;2.95;2.33;;;;;;;;;;4971920;28;20027;-70
2021/06/07 08:11:15;;;;;;;1.92;1.83;;;;;;;;;;4971922;28;20072;-70
2021/06/07 08:13:41;;;;;;;2.40;2.00;;;;;;;;;;4971091;28;20031;-70
2021/06/07 08:16:07;;;;;;;3.92;2.00;;;;;;;;;;4971410;28;20030;-70
2021/06/07 08:18:34;;;;;;;2.15;1.83;;;;;;;;;;4971903;28;20029;-71
2021/06/07 08:21:00;;;;;;;4.30;1.55;;;;;;;;;;4971015;28;20175;-70
2021/06/07 08:23:26;;;;;;;4.07;1.70;;;;;;;;;;4970378;28;20026;-69
2021/06/07 08:25:52;;;;;;;5.18;1.88;;;;;;;;;;4970956;28;20528;-70
2021/06/07 08:28:19;;;;;;;3.33;2.20;;;;;;;;;;4969460;28;20387;-70
2021/06/07 08:30:45;;;;;;;5.30;2.40;;;;;;;;;;4971142;28;20475;-69
2021/06/07 08:33:11;;;;;;;6.50;2.00;;;;;;;;;;4973149;28;20126;-74
2021/06/07 08:35:37;;;;;;;2.88;1.80;;;;;;;;;;4971636;28;20118;-72
2021/06/07 08:38:03;;;;;;;2.10;1.80;;;;;;;;;;4971440;28;20302;-74
2021/06/07 08:40:30;;;;;;;4.28;2.10;;;;;;;;;;4970753;28;20467;-74
2021/06/07 08:42:56;;;;;;;2.38;2.17;;;;;;;;;;4971289;28;20023;-74
2021/06/07 08:45:23;;;;;;;2.88;1.80;;;;;;;;;;4970417;28;20031;-74
2021/06/07 08:47:50;;;;;;;2.42;1.90;;;;;;;;;;4971724;28;20060;-73
2021/06/07 08:50:17;;;;;;;2.55;2.00;;;;;;;;;;4971673;28;20384;-73
2021/06/07 08:52:44;;;;;;;3.13;2.33;;;;;;;;;;4972009;28;20058;-73
2021/06/07 08:55:17;;;;;;;6.82;2.92;;;;;;;;;;4971049;28;20133;-73
2021/06/07 08:57:45;;;;;;;14.32;3.03;;;;;;;;;;4972543;28;20030;-73
2021/06/07 09:00:14;;;;;;;8.18;3.28;;;;;;;;;;4972699;28;20092;-74
2021/06/07 09:02:41;;;;;;;6.78;3.38;;;;;;;;;;4972510;28;20035;-73
2021/06/07 09:05:08;;;;;;;3.92;3.53;;;;;;;;;;4972541;28;20046;-73
2021/06/07 09:07:35;;;;;;;5.22;3.25;;;;;;;;;;4972402;28;20499;-72
2021/06/07 09:10:13;;;;;;;3.88;2.90;;;;;;;;;;4972422;28;20471;-72
2021/06/07 09:12:41;;;;;;;5.15;2.80;;;;;;;;;;4972253;28;20072;-73
2021/06/07 09:15:13;;;;;;;4.78;3.17;;;;;;;;;;4970990;28;20042;-73
2021/06/07 09:17:44;;;;;;;4.10;3.10;;;;;;;;;;4972318;28;20019;-73
2021/06/07 09:20:18;;;;;;;3.88;3.30;;;;;;;;;;4972332;28;20027;-73
2021/06/07 09:22:48;;;;;;;4.82;3.45;;;;;;;;;;4972333;28;20028;-73
2021/06/07 09:25:16;;;;;;;3.97;3.50;;;;;;;;;;4972263;28;20031;-73
2021/06/07 09:27:59;;;;;;;3.80;3.15;;;;;;;;;;4972464;28;20121;-73
2021/06/07 09:30:30;;;;;;;5.03;3.65;;;;;;;;;;4972207;28;20031;-73
2021/06/07 09:33:15;;;;;;;7.38;3.35;;;;;;;;;;4971962;28;20399;-74
2021/06/07 09:35:41;;;;;;;3.63;3.03;;;;;;;;;;4972058;28;20049;-74
2021/06/07 09:38:07;;;;;;;3.30;3.00;;;;;;;;;;4971955;28;20025;-73
2021/06/07 09:40:33;;;;;;;6.70;3.92;;;;;;;;;;4971973;28;20053;-73
2021/06/07 09:43:00;;;;;;;5.80;3.22;;;;;;;;;;4971167;28;20027;-73
2021/06/07 09:45:43;;;;;;;3.92;3.10;;;;;;;;;;4972186;28;20026;-74
2021/06/07 09:48:18;;;;;;;6.15;3.50;;;;;;;;;;4972076;28;20057;-73
2021/06/07 09:50:53;;;;;;;4.95;3.00;;;;;;;;;;4971923;28;20073;-73
2021/06/07 09:53:42;;;;;;;5.05;3.30;;;;;;;;;;4971818;28;20053;-73
2021/06/07 09:56:08;;;;;;;3.42;3.13;;;;;;;;;;4971989;28;20039;-73
2021/06/07 09:58:37;;;;;;;3.20;2.90;;;;;;;;;;4971684;28;20027;-73
2021/06/07 10:01:13;;;;;;;3.30;3.00;;;;;;;;;;4971802;28;20027;-74
2021/06/07 10:03:44;;;;;;;8.57;3.30;;;;;;;;;;4971642;28;20542;-73
2021/06/07 10:06:30;;;;;;;4.28;3.13;;;;;;;;;;4971759;28;20019;-74
2021/06/07 10:09:00;;;;;;;3.30;3.00;;;;;;;;;;4971519;28;20038;-73
2021/06/07 10:11:27;;;;;;;4.13;2.85;;;;;;;;;;4971713;28;20023;-73
2021/06/07 10:14:08;;;;;;;4.35;2.90;;;;;;;;;;4971756;28;20035;-73
2021/06/07 10:16:34;;;;;;;5.80;2.80;;;;;;;;;;4971481;28;20053;-73
2021/06/07 10:19:04;;;;;;;3.17;2.80;;;;;;;;;;4971350;28;20399;-73
2021/06/07 10:21:30;;;;;;;3.47;3.00;;;;;;;;;;4971576;28;20023;-73
2021/06/07 10:23:57;;;;;;;3.65;2.92;;;;;;;;;;4971380;28;20023;-73
2021/06/07 10:26:23;;;;;;;3.08;2.78;;;;;;;;;;4971260;28;20030;-73
2021/06/07 10:28:53;;;;;;;3.55;3.15;;;;;;;;;;4971386;28;20437;-73
2021/06/07 10:31:20;;;;;;;3.50;2.92;;;;;;;;;;4971279;28;20522;-73
2021/06/07 10:33:56;;;;;;;3.10;2.80;;;;;;;;;;4971163;28;20051;-74
2021/06/07 10:36:22;;;;;;;3.65;2.97;;;;;;;;;;4970468;28;20108;-74
2021/06/07 10:38:49;;;;;;;2.70;2.50;;;;;;;;;;4970259;28;20019;-74
2021/06/07 10:41:21;;;;;;;6.82;3.15;;;;;;;;;;4968081;28;20073;-74
2021/06/07 10:43:49;;;;;;;3.50;3.20;;;;;;;;;;4969539;28;20031;-74
2021/06/07 10:46:21;;;;;;;4.15;2.80;;;;;;;;;;4970115;28;20394;-73
2021/06/07 10:48:51;;;;;;;5.85;3.08;;;;;;;;;;4969493;28;20091;-74
2021/06/07 10:51:17;;;;;;;3.13;2.83;;;;;;;;;;4970824;28;20031;-74
2021/06/07 10:53:43;;;;;;;3.22;2.90;;;;;;;;;;4971465;28;20039;-73
2021/06/07 10:56:10;;;;;;;8.77;3.38;;;;;;;;;;4974236;28;20069;-73
2021/06/07 10:58:36;;;;;;;3.67;2.85;;;;;;;;;;4974221;28;20022;-72
2021/06/07 11:01:02;;;;;;;4.55;3.10;;;;;;;;;;4974234;28;20023;-72
2021/06/07 11:03:30;;;;;;;3.22;2.88;;;;;;;;;;4972402;28;20088;-72
2021/06/07 11:06:00;;;;;;;5.90;3.25;;;;;;;;;;4973604;28;20030;-73
2021/06/07 11:08:30;;;;;;;3.97;2.92;;;;;;;;;;4973637;28;20084;-73
2021/06/07 11:11:09;;;;;;;7.57;3.38;;;;;;;;;;4971991;28;20038;-72
2021/06/07 11:13:50;;;;;;;4.97;3.40;;;;;;;;;;4974168;28;20031;-72
2021/06/07 11:16:25;;;;;;;6.18;2.90;;;;;;;;;;4974161;28;20034;-73
2021/06/07 11:19:17;;;;;;;4.70;3.22;;;;;;;;;;4974155;28;20056;-71
2021/06/07 11:21:45;;;;;;;8.15;3.72;;;;;;;;;;4977665;28;20173;-71
2021/06/07 11:24:30;;;;;;;8.63;2.97;;;;;;;;;;4972686;28;20434;-71
2021/06/07 11:26:57;;;;;;;8.45;3.03;;;;;;;;;;4973919;28;20387;-72
2021/06/07 11:29:25;;;;;;;3.83;2.50;;;;;;;;;;4973804;28;20544;-73
2021/06/07 11:31:52;;;;;;;7.85;3.00;;;;;;;;;;4973812;28;20035;-72
2021/06/07 11:34:20;;;;;;;8.15;2.83;;;;;;;;;;4973674;28;20035;-71
2021/06/07 11:36:49;;;;;;;5.30;2.58;;;;;;;;;;4973869;28;20498;-71
2021/06/07 11:39:15;;;;;;;4.53;2.67;;;;;;;;;;4973783;28;20484;-74
2021/06/07 11:41:48;;;;;;;2.83;2.30;;;;;;;;;;4973942;28;20390;-73
2021/06/07 11:44:15;;;;;;;3.00;2.70;;;;;;;;;;4973751;28;20103;-72
2021/06/07 11:46:41;;;;;;;4.75;2.80;;;;;;;;;;4956001;28;20031;-72
2021/06/07 11:49:12;;;;;;;3.10;2.80;;;;;;;;;;4952709;28;20464;-72
2021/06/07 11:51:39;;;;;;;5.57;3.35;;;;;;;;;;4952920;28;20386;-73
2021/06/07 11:54:23;;;;;;;7.18;2.88;;;;;;;;;;4953816;28;20070;-72
2021/06/07 11:57:01;;;;;;;10.18;3.10;;;;;;;;;;4952274;28;20048;-74
2021/06/07 11:59:31;;;;;;;4.68;2.75;;;;;;;;;;4949584;29;20027;-72
2021/06/07 12:01:58;;;;;;;4.47;3.00;;;;;;;;;;4951458;29;20027;-72
2021/06/07 12:04:25;;;;;;;6.03;3.10;;;;;;;;;;4953799;28;20027;-72
2021/06/07 12:06:58;;;;;;;9.95;2.65;;;;;;;;;;4952981;28;20034;-73
2021/06/07 12:09:26;;;;;;;5.13;3.08;;;;;;;;;;4953337;28;20453;-72
2021/06/07 12:11:54;;;;;;;3.70;3.13;;;;;;;;;;4953796;28;20027;-72
2021/06/07 12:14:27;;;;;;;4.18;2.90;;;;;;;;;;4952620;28;20042;-73
2021/06/07 12:16:53;;;;;;;3.95;3.55;;;;;;;;;;4953300;28;20089;-73
2021/06/07 12:19:23;;;;;;;4.47;3.03;;;;;;;;;;4953080;28;20030;-72
2021/06/07 12:21:49;;;;;;;4.07;2.92;;;;;;;;;;4952995;28;20102;-72
2021/06/07 12:24:19;;;;;;;4.88;2.83;;;;;;;;;;4953121;28;20026;-72
2021/06/07 12:29:38;;;;;;;5.60;3.40;;;;;;;;;;4951498;29;20030;-73
2021/06/07 12:32:17;;;;;;;5.15;3.38;;;;;;;;;;4952166;28;20138;-72
2021/06/07 12:35:02;;;;;;;3.20;2.90;;;;;;;;;;4953169;28;20035;-73
2021/06/07 12:37:30;;;;;;;5.30;2.88;;;;;;;;;;4953431;28;20035;-73
2021/06/07 12:40:08;;;;;;;4.07;3.40;;;;;;;;;;4953532;28;20023;-73
2021/06/07 12:42:37;;;;;;;3.25;2.92;;;;;;;;;;4953906;28;20027;-73
2021/06/07 12:45:10;;;;;;;4.22;3.20;;;;;;;;;;4953468;28;20035;-73
2021/06/07 12:47:39;;;;;;;5.78;3.20;;;;;;;;;;4953006;28;20028;-72
2021/06/07 12:50:14;;;;;;;3.45;2.88;;;;;;;;;;4951674;28;20058;-73
2021/06/07 12:52:41;;;;;;;4.25;2.92;;;;;;;;;;4952064;29;20042;-73
2021/06/07 12:55:09;;;;;;;5.25;3.00;;;;;;;;;;4953009;28;20039;-72
2021/06/07 12:57:35;;;;;;;6.80;3.45;;;;;;;;;;4952890;28;20019;-72
2021/06/07 13:00:21;;;;;;;3.60;3.28;;;;;;;;;;4953093;28;20031;-73
2021/06/07 13:02:47;;;;;;;4.43;2.88;;;;;;;;;;4952707;28;20034;-71
2021/06/07 13:05:26;;;;;;;3.58;2.70;;;;;;;;;;4963475;28;20031;-71
2021/06/07 13:08:12;;;;;;;5.20;3.10;;;;;;;;;;4970111;28;20072;-71
2021/06/07 13:10:46;;;;;;;6.75;3.20;;;;;;;;;;4969370;28;20113;-72
2021/06/07 13:13:23;;;;;;;5.43;3.28;;;;;;;;;;4971792;28;20062;-72
2021/06/07 13:16:02;;;;;;;4.00;3.30;;;;;;;;;;4953153;28;20129;-72
2021/06/07 13:18:29;;;;;;;3.97;3.35;;;;;;;;;;4966695;28;20027;-72
2021/06/07 13:21:07;;;;;;;3.83;3.40;;;;;;;;;;4952019;28;20491;-72
2021/06/07 13:23:39;;;;;;;4.45;3.50;;;;;;;;;;4952086;28;20025;-72
2021/06/07 13:26:19;;;;;;;4.07;2.88;;;;;;;;;;4951025;28;20032;-71
2021/06/07 13:28:46;;;;;;;4.43;3.47;;;;;;;;;;4950819;28;20082;-71
2021/06/07 13:31:12;;;;;;;5.22;3.30;;;;;;;;;;4951786;28;20023;-71
2021/06/07 13:33:40;;;;;;;5.35;3.50;;;;;;;;;;4952172;28;20055;-72
2021/06/07 13:36:08;;;;;;;5.07;3.80;;;;;;;;;;4952302;28;20471;-71
2021/06/07 13:38:41;;;;;;;5.00;3.58;;;;;;;;;;4952265;28;20031;-72
2021/06/07 13:41:13;;;;;;;9.23;3.35;;;;;;;;;;4951108;28;20027;-72
2021/06/07 13:43:40;;;;;;;5.53;3.40;;;;;;;;;;4951949;28;20023;-72
2021/06/07 13:46:08;;;;;;;5.57;3.35;;;;;;;;;;4952070;28;20555;-72
2021/06/07 13:48:36;;;;;;;6.00;3.35;;;;;;;;;;4951481;29;20511;-72
2021/06/07 13:51:04;;;;;;;3.88;2.92;;;;;;;;;;4952425;28;20058;-72
2021/06/07 13:53:38;;;;;;;4.53;3.50;;;;;;;;;;4950821;28;20027;-71
2021/06/07 13:56:05;;;;;;;4.60;3.17;;;;;;;;;;4950670;28;20122;-72
2021/06/07 13:58:53;;;;;;;5.78;3.22;;;;;;;;;;4952179;28;20031;-72
2021/06/07 14:01:23;;;;;;;7.82;3.40;;;;;;;;;;4952095;28;20027;-73
2021/06/07 14:03:55;;;;;;;4.25;3.80;;;;;;;;;;4957948;28;20109;-73
2021/06/07 14:06:21;;;;;;;9.63;3.97;;;;;;;;;;4971663;28;20019;-73
2021/06/07 14:08:56;;;;;;;5.43;3.65;;;;;;;;;;4971273;28;20038;-73
2021/06/07 14:11:24;;;;;;;4.65;3.08;;;;;;;;;;4971661;28;20045;-73
2021/06/07 14:13:50;;;;;;;8.55;3.47;;;;;;;;;;4971361;28;20027;-74
2021/06/07 14:16:19;;;;;;;7.18;3.70;;;;;;;;;;4971414;28;20030;-73
2021/06/07 14:18:47;;;;;;;4.60;3.50;;;;;;;;;;4971270;28;20080;-73
2021/06/07 14:21:22;;;;;;;4.75;2.88;;;;;;;;;;4971403;28;20383;-73
2021/06/07 14:26:34;;;;;;;5.00;3.33;;;;;;;;;;4971492;28;20097;-73
2021/06/07 14:29:02;;;;;;;5.07;3.08;;;;;;;;;;4972231;28;20034;-73
2021/06/07 14:31:29;;;;;;;4.15;3.17;;;;;;;;;;4974052;28;20018;-73
2021/06/07 14:33:56;;;;;;;3.45;2.80;;;;;;;;;;4973496;28;20543;-73
2021/06/07 14:36:23;;;;;;;5.47;3.30;;;;;;;;;;4962023;28;20038;-74
2021/06/07 14:38:50;;;;;;;4.68;3.22;;;;;;;;;;4955112;28;20039;-73
2021/06/07 14:41:17;;;;;;;5.35;3.40;;;;;;;;;;4955031;28;20102;-73
2021/06/07 14:43:45;;;;;;;4.25;3.42;;;;;;;;;;4955244;28;20035;-73
2021/06/07 14:46:13;;;;;;;5.18;3.00;;;;;;;;;;4955205;28;20081;-73
2021/06/07 14:48:40;;;;;;;3.47;3.03;;;;;;;;;;4954952;28;20038;-73
2021/06/07 14:51:08;;;;;;;3.97;3.00;;;;;;;;;;4955181;28;20531;-73
2021/06/07 14:53:36;;;;;;;5.72;2.72;;;;;;;;;;4953583;28;20474;-74
2021/06/07 14:56:05;;;;;;;9.38;3.00;;;;;;;;;;4954520;28;20120;-73